createdAt,value
2023-03-17T03:11:07.843Z,0.68
2023-03-17T03:15:07.979Z,0.67
2023-03-17T03:19:08.078Z,0.67
2023-03-17T03:23:08.201Z,0.67
2023-03-17T03:27:08.354Z,0.66
2023-03-17T03:31:08.515Z,0.66
2023-03-17T03:35:08.699Z,0.66
2023-03-17T03:39:08.755Z,0.66
2023-03-17T03:43:22.038Z,0.65
2023-03-17T03:51:08.814Z,0.65
2023-03-17T03:55:08.755Z,0.67
2023-03-17T03:59:08.780Z,0.65
2023-03-17T04:03:08.989Z,0.64
2023-03-17T04:07:09.021Z,0.66
2023-03-17T04:11:09.167Z,0.65
2023-03-17T04:15:09.260Z,0.65
2023-03-17T04:19:09.479Z,0.65
2023-03-17T04:23:09.549Z,0.64
2023-03-17T04:27:09.614Z,0.63
2023-03-17T04:31:09.763Z,0.64
2023-03-17T04:35:09.877Z,0.63
2023-03-17T04:39:10.005Z,0.61
2023-03-17T04:43:10.098Z,0.63
2023-03-17T08:15:12.093Z,2.87
2023-03-17T08:19:12.067Z,3.08
2023-03-17T08:27:12.034Z,3.72
2023-03-17T08:31:12.648Z,3.63
2023-03-17T08:35:11.938Z,3.87
2023-03-17T08:43:11.885Z,3.28
2023-03-17T08:47:11.824Z,3.13
2023-03-17T08:51:11.838Z,2.73
2023-03-17T08:55:11.756Z,3.25
2023-03-17T08:59:11.709Z,3.10
2023-03-17T10:03:12.656Z,0.75
2023-03-17T10:19:12.636Z,0.82
2023-03-17T10:23:12.493Z,0.95
2023-03-17T10:27:12.409Z,0.94
2023-03-17T10:35:12.368Z,0.97
2023-03-17T10:51:12.768Z,0.34
2023-03-17T16:31:13.966Z,43.15
2023-03-17T16:35:13.873Z,38.37
2023-03-17T16:39:14.060Z,37.55
2023-03-17T16:43:24.411Z,38.52
2023-03-17T16:47:14.969Z,37.99
2023-03-17T16:51:13.931Z,36.26
2023-03-17T16:55:14.089Z,35.02
2023-03-17T16:59:13.996Z,34.09
2023-03-17T17:03:14.048Z,31.95
2023-03-17T17:07:14.172Z,30.54
2023-03-17T17:11:14.209Z,29.93
2023-03-17T17:15:14.415Z,28.54
2023-03-17T17:19:14.537Z,26.90
2023-03-17T17:23:14.776Z,26.65
2023-03-17T17:27:14.680Z,25.56
2023-03-17T17:31:14.816Z,25.40
2023-03-17T17:35:14.674Z,24.90
2023-03-17T17:39:15.250Z,23.59
2023-03-17T17:43:14.672Z,19.78
2023-03-17T17:47:14.551Z,18.93
2023-03-17T17:51:14.558Z,18.03
2023-03-17T17:55:14.471Z,17.42
2023-03-17T17:59:14.445Z,16.36
2023-03-17T18:03:14.347Z,15.21
2023-03-17T18:07:14.353Z,15.24
2023-03-17T18:11:14.373Z,14.83
2023-03-17T18:15:14.287Z,14.14
2023-03-17T18:19:14.277Z,13.56
2023-03-17T18:23:14.278Z,15.26
2023-03-17T18:27:14.411Z,14.15
2023-03-17T18:31:14.383Z,14.79
2023-03-17T18:35:14.410Z,8.15
2023-03-17T18:39:14.361Z,6.38
2023-03-17T18:43:14.384Z,8.34
2023-03-17T18:47:14.384Z,4.15
2023-03-17T18:51:14.522Z,2.64
2023-03-17T18:55:14.665Z,1.96
2023-03-17T18:59:14.823Z,1.47
2023-03-17T19:03:14.810Z,1.33
2023-03-17T19:07:14.697Z,1.05
2023-03-17T19:11:14.667Z,1.04
2023-03-17T19:15:14.647Z,1.09
2023-03-17T19:19:14.636Z,1.31
2023-03-17T19:23:14.561Z,1.75
2023-03-17T19:27:14.556Z,2.05
2023-03-17T19:31:14.537Z,2.65
2023-03-17T19:35:14.438Z,3.14
2023-03-17T19:39:14.482Z,3.89
2023-03-17T19:43:20.161Z,4.48
2023-03-17T19:47:15.401Z,4.69
2023-03-17T19:51:14.347Z,5.51
2023-03-17T19:59:15.314Z,6.13
2023-03-17T20:39:14.642Z,13.78
2023-03-17T20:43:14.664Z,14.54
2023-03-17T20:47:14.720Z,14.93
2023-03-17T20:51:14.850Z,15.50
2023-03-17T20:55:14.963Z,16.02
2023-03-17T20:59:15.059Z,16.17
2023-03-17T21:03:15.150Z,16.24
2023-03-17T21:07:15.260Z,16.71
2023-03-17T21:11:15.421Z,17.02
2023-03-17T21:15:15.516Z,16.66
2023-03-17T21:19:16.192Z,16.62
2023-03-17T21:23:15.792Z,16.52
2023-03-17T21:27:15.911Z,16.66
2023-03-17T21:31:16.396Z,16.82
2023-03-17T21:35:16.185Z,16.92
2023-03-17T21:39:16.317Z,16.66
2023-03-17T21:43:16.421Z,16.46
2023-03-17T21:47:16.579Z,16.37
2023-03-17T21:51:16.980Z,16.60
2023-03-17T21:55:16.947Z,16.49
2023-03-17T21:59:17.055Z,15.99
2023-03-17T22:03:17.292Z,16.43
2023-03-17T22:07:17.392Z,16.14
2023-03-17T22:11:17.551Z,16.04
2023-03-17T22:15:17.754Z,15.91
2023-03-17T22:19:21.025Z,15.82
2023-03-17T22:23:17.939Z,15.63
2023-03-17T22:27:17.933Z,15.71
2023-03-17T22:31:17.978Z,15.28
2023-03-17T22:35:17.809Z,15.12
2023-03-17T22:39:17.816Z,15.08
2023-03-17T22:43:17.777Z,14.72
2023-03-17T22:47:17.732Z,14.74
2023-03-17T22:51:17.700Z,14.77
2023-03-17T22:55:17.671Z,14.27
2023-03-17T22:59:17.626Z,14.59
2023-03-17T23:03:17.904Z,14.10
2023-03-17T23:07:17.542Z,13.96
2023-03-17T23:11:17.507Z,13.94
2023-03-17T23:15:17.503Z,13.76
2023-03-17T23:19:17.439Z,13.69
2023-03-17T23:23:17.449Z,13.58
2023-03-17T23:27:17.355Z,13.48
2023-03-17T23:31:17.403Z,13.43
2023-03-17T23:35:17.430Z,13.21
2023-03-17T23:39:17.531Z,12.94
2023-03-17T23:43:17.579Z,12.82
2023-03-17T23:47:17.614Z,12.71
2023-03-17T23:51:17.604Z,12.58
2023-03-17T23:55:17.636Z,12.21
2023-03-17T23:59:17.658Z,12.42
